Petersburg, AK (99833)

12:56 PM AKDT on July 30, 2014 (GMT -0800)
Johnson Petersburg (PAPG) Elev 0 ft | 56.82 °N, 132.97 °W | Change Station

Current weather conditions updated 20 minutes ago

Mostly Cloudy
Mostly Cloudy
57 °F
Feels Like 57 °F
N
5
Wind Variable Wind from East

Today is forecast to be Warmer than yesterday. Chance of showers.

Today
High -- | Low -- °F
--% Chance of Precip.
Yesterday
High -- | Low -- °F
Precip. -- in
4:49 AM 9:08 PM
Waxing Crescent, 13% visible
Pressure 30.26 in
Visibility 10.0 miles
Clouds Few 800 ft
Scattered Clouds 2900 ft
Mostly Cloudy 4600 ft
Dew Point 52 °F
Humidity 82%
Rainfall 0.00 in
Snow Depth Not available.
UV 4 out of 12
Pollen Not available.
Air Quality Not available.
Flu Activity Not available.
METAR PAPG 302036Z 08004KT 10SM FEW008 SCT029 BKN046 14/11 A3026 RMK AO1 WEA:

More Conditions Fewer Conditions

Pressure 30.26 in
Visibility 10.0 miles
Clouds Few 800 ft
Scattered Clouds 2900 ft
Mostly Cloudy 4600 ft
Dew Point 52 °F
Humidity 82%
Rainfall 0.00 in
Snow Depth Not available.
UV 4 out of 12
Pollen Not available.
Air Quality Not available.
Flu Activity Not available.
METAR PAPG 302036Z 08004KT 10SM FEW008 SCT029 BKN046 14/11 A3026 RMK AO1 WEA:

More Conditions Fewer Conditions

10-Day Weather Forecast

Almanac

Astronomy

Jul. 30, 2014 Rise Set
Actual Time 4:49 AM AKDT 9:08 PM AKDT
Civil Twilight 3:57 AM AKDT 9:59 PM AKDT
Nautical Twilight 2:36 AM AKDT 11:19 PM AKDT
Astronomical Twilight Sun does not rise Sun does not rise
Moon 9:22 AM AKDT 9:54 PM AKDT
Length of Visible Light 18h 01m
Length of Day
16h 19m
Tomorrow will be 4m 0s shorter.
Waxing Crescent, 13% of the Moon is Illuminated
Today
Waxing Crescent
Aug 3
First Quarter
Aug 10
Full
Aug 17
Last Quarter
Aug 25
New

Today's Extremes

State Highs State Lows

Community

WunderPhotos

Upload Photos

1,739,185 photos uploaded!

WunderBlogs® & News

By Dr. Jeff Masters
Director of Meteorology, Weather Underground
By Kari Strenfel
Meteorologist, Weather Underground
By Christopher C. Burt
Weather Historian, Weather Underground
July 30, 2014
July 30, 2014
July 30, 2014

Nearby

Snow Depth

Station Depth Elevation
Long Lake 0 in 820 ft
Upper Tsaina River 0 in 1750 ft
Grandview 2 in 1100 ft
Grouse Creek Divide 0 in 700 ft
Turnagain Pass 0 in 1880 ft

Earthquake Activity

City Distance Mag. Time & Date
No recent earthquake activity has been reported nearby.
Minimum magnitude displayed is 2.5.

Coastal Water Temperatures

Place Temperature
No Stations Reporting

Nearby Weather Stations

Station Location Temp. Dew Point Humidity Wind Precip. Elev Updated Type
RAWS KAKE AK, Kake, AK 57 °F 56 °F 96% North  at  0 mph 0.08 in / hr 399 ft 11:55 AM AKDT MADIS
Papke's Landing, Petersburg, AK 60.6 °F 59 °F 93% SSW  at  0.0 mph - / hr 75 ft 12:54 PM AKDT Normal

Show More Stations Show Fewer Stations